sensor_id;sensor_type;location;lat;lon;timestamp;temperature;humidity
6662;DHT22;3367;48.714;8.994;2023-02-28T00:01:22;-2.50;1.00
6662;DHT22;3367;48.714;8.994;2023-02-28T00:03:49;-2.50;1.00
6662;DHT22;3367;48.714;8.994;2023-02-28T00:06:16;-2.60;1.00
6662;DHT22;3367;48.714;8.994;2023-02-28T00:08:44;-2.60;1.00
6662;DHT22;3367;48.714;8.994;2023-02-28T00:11:13;-2.70;1.00
6662;DHT22;3367;48.714;8.994;2023-02-28T00:13:42;-2.70;1.00
6662;DHT22;3367;48.714;8.994;2023-02-28T00:16:13;-2.70;1.00
6662;DHT22;3367;48.714;8.994;2023-02-28T00:18:40;-2.70;1.00
6662;DHT22;3367;48.714;8.994;2023-02-28T00:21:08;-2.80;1.00
6662;DHT22;3367;48.714;8.994;2023-02-28T00:23:35;-2.80;1.00
6662;DHT22;3367;48.714;8.994;2023-02-28T00:26:02;-2.80;1.00
6662;DHT22;3367;48.714;8.994;2023-02-28T00:28:30;-2.80;1.00
6662;DHT22;3367;48.714;8.994;2023-02-28T00:30:57;-2.80;1.00
6662;DHT22;3367;48.714;8.994;2023-02-28T00:33:25;-2.80;1.00
6662;DHT22;3367;48.714;8.994;2023-02-28T00:35:52;-2.80;1.00
6662;DHT22;3367;48.714;8.994;2023-02-28T00:38:26;-2.80;1.00
6662;DHT22;3367;48.714;8.994;2023-02-28T00:40:53;-2.80;1.00
6662;DHT22;3367;48.714;8.994;2023-02-28T00:43:20;-2.90;1.00
6662;DHT22;3367;48.714;8.994;2023-02-28T00:45:48;-2.90;1.00
6662;DHT22;3367;48.714;8.994;2023-02-28T00:48:15;-2.80;1.00
6662;DHT22;3367;48.714;8.994;2023-02-28T00:50:42;-2.90;1.00
6662;DHT22;3367;48.714;8.994;2023-02-28T00:53:08;-2.90;1.00
6662;DHT22;3367;48.714;8.994;2023-02-28T00:55:35;-2.90;1.00
6662;DHT22;3367;48.714;8.994;2023-02-28T00:58:02;-2.90;1.00
6662;DHT22;3367;48.714;8.994;2023-02-28T01:00:29;-2.90;1.00
6662;DHT22;3367;48.714;8.994;2023-02-28T01:02:57;-2.90;1.00
6662;DHT22;3367;48.714;8.994;2023-02-28T01:05:23;-3.00;1.00
6662;DHT22;3367;48.714;8.994;2023-02-28T01:07:50;-3.00;1.00
6662;DHT22;3367;48.714;8.994;2023-02-28T01:10:17;-3.00;1.00
6662;DHT22;3367;48.714;8.994;2023-02-28T01:12:44;-3.00;1.00
6662;DHT22;3367;48.714;8.994;2023-02-28T01:15:11;-3.10;1.00
6662;DHT22;3367;48.714;8.994;2023-02-28T01:17:37;-3.10;1.00
6662;DHT22;3367;48.714;8.994;2023-02-28T01:20:07;-3.00;1.00
6662;DHT22;3367;48.714;8.994;2023-02-28T01:22:35;-3.00;1.00
6662;DHT22;3367;48.714;8.994;2023-02-28T01:25:02;-3.00;1.00
6662;DHT22;3367;48.714;8.994;2023-02-28T01:27:28;-3.10;1.00
6662;DHT22;3367;48.714;8.994;2023-02-28T01:29:55;-3.10;1.00
6662;DHT22;3367;48.714;8.994;2023-02-28T01:32:22;-3.00;1.00
6662;DHT22;3367;48.714;8.994;2023-02-28T01:34:49;-3.00;1.00
6662;DHT22;3367;48.714;8.994;2023-02-28T01:37:17;-3.00;1.00
6662;DHT22;3367;48.714;8.994;2023-02-28T01:39:44;-2.90;1.00
6662;DHT22;3367;48.714;8.994;2023-02-28T01:42:12;-2.90;1.00
6662;DHT22;3367;48.714;8.994;2023-02-28T01:44:59;-3.00;1.00
6662;DHT22;3367;48.714;8.994;2023-02-28T01:47:29;-3.00;1.00
6662;DHT22;3367;48.714;8.994;2023-02-28T01:49:58;-3.00;1.00
6662;DHT22;3367;48.714;8.994;2023-02-28T01:52:29;-3.00;1.00
6662;DHT22;3367;48.714;8.994;2023-02-28T01:54:59;-3.00;1.00
6662;DHT22;3367;48.714;8.994;2023-02-28T01:57:30;-3.00;1.00
6662;DHT22;3367;48.714;8.994;2023-02-28T02:00:05;-3.10;1.00
6662;DHT22;3367;48.714;8.994;2023-02-28T02:02:36;-3.00;1.00
6662;DHT22;3367;48.714;8.994;2023-02-28T02:05:05;-3.00;1.00
6662;DHT22;3367;48.714;8.994;2023-02-28T02:07:37;-3.10;1.00
6662;DHT22;3367;48.714;8.994;2023-02-28T02:10:10;-3.10;1.00
6662;DHT22;3367;48.714;8.994;2023-02-28T02:12:52;-3.10;1.00
6662;DHT22;3367;48.714;8.994;2023-02-28T02:15:25;-3.10;1.00
6662;DHT22;3367;48.714;8.994;2023-02-28T02:17:57;-3.10;1.00
6662;DHT22;3367;48.714;8.994;2023-02-28T02:20:53;-3.10;1.00
6662;DHT22;3367;48.714;8.994;2023-02-28T02:23:52;-3.10;1.00
6662;DHT22;3367;48.714;8.994;2023-02-28T02:26:44;-3.10;1.00
6662;DHT22;3367;48.714;8.994;2023-02-28T02:29:37;-3.10;1.00
6662;DHT22;3367;48.714;8.994;2023-02-28T02:35:18;-3.20;1.00
6662;DHT22;3367;48.714;8.994;2023-02-28T02:37:52;-3.00;1.00
6662;DHT22;3367;48.714;8.994;2023-02-28T02:40:23;-3.00;1.00
6662;DHT22;3367;48.714;8.994;2023-02-28T02:42:55;-3.00;2.90
6662;DHT22;3367;48.714;8.994;2023-02-28T02:45:26;-3.10;4.40
6662;DHT22;3367;48.714;8.994;2023-02-28T02:47:56;-3.00;21.60
6662;DHT22;3367;48.714;8.994;2023-02-28T02:50:31;-3.00;27.90
6662;DHT22;3367;48.714;8.994;2023-02-28T02:53:01;-3.00;20.60
6662;DHT22;3367;48.714;8.994;2023-02-28T02:55:32;-3.00;25.30
6662;DHT22;3367;48.714;8.994;2023-02-28T02:58:03;-3.00;29.20
6662;DHT22;3367;48.714;8.994;2023-02-28T03:00:34;-2.90;37.20
6662;DHT22;3367;48.714;8.994;2023-02-28T03:03:02;-2.90;35.50
6662;DHT22;3367;48.714;8.994;2023-02-28T03:05:35;-2.90;38.60
6662;DHT22;3367;48.714;8.994;2023-02-28T03:08:06;-2.90;34.90
6662;DHT22;3367;48.714;8.994;2023-02-28T03:10:36;-2.90;41.30
6662;DHT22;3367;48.714;8.994;2023-02-28T03:19:26;-2.80;48.10
6662;DHT22;3367;48.714;8.994;2023-02-28T03:22:09;-2.90;56.40
6662;DHT22;3367;48.714;8.994;2023-02-28T03:24:45;-2.80;69.50
6662;DHT22;3367;48.714;8.994;2023-02-28T03:27:21;-2.80;75.00
6662;DHT22;3367;48.714;8.994;2023-02-28T03:29:55;-2.80;83.10
6662;DHT22;3367;48.714;8.994;2023-02-28T03:32:26;-2.80;91.40
6662;DHT22;3367;48.714;8.994;2023-02-28T03:34:59;-2.80;89.80
6662;DHT22;3367;48.714;8.994;2023-02-28T03:37:34;-2.80;94.10
6662;DHT22;3367;48.714;8.994;2023-02-28T03:40:06;-2.80;95.60
6662;DHT22;3367;48.714;8.994;2023-02-28T03:42:36;-2.70;98.00
6662;DHT22;3367;48.714;8.994;2023-02-28T03:45:10;-2.70;99.90
6662;DHT22;3367;48.714;8.994;2023-02-28T03:47:41;-2.70;99.90
6662;DHT22;3367;48.714;8.994;2023-02-28T03:50:14;-2.70;99.90
6662;DHT22;3367;48.714;8.994;2023-02-28T03:52:49;-2.70;99.90
6662;DHT22;3367;48.714;8.994;2023-02-28T03:55:18;-2.70;99.90
6662;DHT22;3367;48.714;8.994;2023-02-28T03:57:54;-2.70;99.90
6662;DHT22;3367;48.714;8.994;2023-02-28T04:00:28;-2.70;99.90
6662;DHT22;3367;48.714;8.994;2023-02-28T04:02:57;-2.70;99.90
6662;DHT22;3367;48.714;8.994;2023-02-28T04:05:24;-2.70;99.90
6662;DHT22;3367;48.714;8.994;2023-02-28T04:07:59;-2.70;99.90
6662;DHT22;3367;48.714;8.994;2023-02-28T04:10:29;-2.70;99.90
6662;DHT22;3367;48.714;8.994;2023-02-28T04:12:56;-2.70;99.90
6662;DHT22;3367;48.714;8.994;2023-02-28T04:15:24;-2.70;99.90
6662;DHT22;3367;48.714;8.994;2023-02-28T04:17:53;-2.70;99.90
6662;DHT22;3367;48.714;8.994;2023-02-28T04:20:20;-2.70;99.90
6662;DHT22;3367;48.714;8.994;2023-02-28T04:22:47;-2.70;99.90
6662;DHT22;3367;48.714;8.994;2023-02-28T04:25:16;-2.70;99.90
6662;DHT22;3367;48.714;8.994;2023-02-28T04:27:43;-2.60;99.90
6662;DHT22;3367;48.714;8.994;2023-02-28T04:30:11;-2.70;99.90
6662;DHT22;3367;48.714;8.994;2023-02-28T04:32:38;-2.60;99.90
6662;DHT22;3367;48.714;8.994;2023-02-28T04:35:06;-2.60;99.90
6662;DHT22;3367;48.714;8.994;2023-02-28T04:37:33;-2.60;99.90
6662;DHT22;3367;48.714;8.994;2023-02-28T04:40:03;-2.60;99.90
6662;DHT22;3367;48.714;8.994;2023-02-28T04:42:32;-2.60;99.90
6662;DHT22;3367;48.714;8.994;2023-02-28T04:45:02;-2.60;99.90
6662;DHT22;3367;48.714;8.994;2023-02-28T04:47:29;-2.50;99.90
6662;DHT22;3367;48.714;8.994;2023-02-28T04:49:56;-2.50;99.90
6662;DHT22;3367;48.714;8.994;2023-02-28T04:52:23;-2.50;99.90
6662;DHT22;3367;48.714;8.994;2023-02-28T04:54:50;-2.50;99.90
6662;DHT22;3367;48.714;8.994;2023-02-28T04:57:17;-2.50;99.90
6662;DHT22;3367;48.714;8.994;2023-02-28T04:59:45;-2.40;99.90
6662;DHT22;3367;48.714;8.994;2023-02-28T05:02:12;-2.40;99.90
6662;DHT22;3367;48.714;8.994;2023-02-28T05:04:39;-2.50;99.90
6662;DHT22;3367;48.714;8.994;2023-02-28T05:07:06;-2.40;99.90
6662;DHT22;3367;48.714;8.994;2023-02-28T05:09:34;-2.40;99.90
6662;DHT22;3367;48.714;8.994;2023-02-28T05:12:04;-2.40;99.90
6662;DHT22;3367;48.714;8.994;2023-02-28T05:14:38;-2.40;99.90
6662;DHT22;3367;48.714;8.994;2023-02-28T05:17:07;-2.40;99.90
6662;DHT22;3367;48.714;8.994;2023-02-28T05:19:35;-2.40;99.90
6662;DHT22;3367;48.714;8.994;2023-02-28T05:22:02;-2.40;99.90
6662;DHT22;3367;48.714;8.994;2023-02-28T05:24:29;-2.40;99.90
6662;DHT22;3367;48.714;8.994;2023-02-28T05:26:56;-2.40;99.90
6662;DHT22;3367;48.714;8.994;2023-02-28T05:29:23;-2.40;99.90
6662;DHT22;3367;48.714;8.994;2023-02-28T05:31:50;-2.30;99.90
6662;DHT22;3367;48.714;8.994;2023-02-28T05:34:19;-2.30;99.90
6662;DHT22;3367;48.714;8.994;2023-02-28T05:36:46;-2.30;99.90
6662;DHT22;3367;48.714;8.994;2023-02-28T05:39:13;-2.30;99.90
6662;DHT22;3367;48.714;8.994;2023-02-28T05:41:41;-2.30;99.90
6662;DHT22;3367;48.714;8.994;2023-02-28T05:44:08;-2.30;99.90
6662;DHT22;3367;48.714;8.994;2023-02-28T05:46:35;-2.30;99.90
6662;DHT22;3367;48.714;8.994;2023-02-28T05:49:02;-2.30;99.90
6662;DHT22;3367;48.714;8.994;2023-02-28T05:51:31;-2.30;99.90
6662;DHT22;3367;48.714;8.994;2023-02-28T05:54:00;-2.20;99.90
6662;DHT22;3367;48.714;8.994;2023-02-28T05:56:27;-2.30;99.90
6662;DHT22;3367;48.714;8.994;2023-02-28T05:58:54;-2.30;99.90
6662;DHT22;3367;48.714;8.994;2023-02-28T06:01:32;-2.20;99.90
6662;DHT22;3367;48.714;8.994;2023-02-28T06:04:00;-2.20;99.90
6662;DHT22;3367;48.714;8.994;2023-02-28T06:06:27;-2.30;99.90
6662;DHT22;3367;48.714;8.994;2023-02-28T06:08:56;-2.30;99.90
6662;DHT22;3367;48.714;8.994;2023-02-28T06:11:24;-2.10;99.90
6662;DHT22;3367;48.714;8.994;2023-02-28T06:13:53;-2.20;99.90
6662;DHT22;3367;48.714;8.994;2023-02-28T06:16:21;-2.20;99.90
6662;DHT22;3367;48.714;8.994;2023-02-28T06:18:48;-2.20;99.90
6662;DHT22;3367;48.714;8.994;2023-02-28T06:21:15;-2.20;99.90
6662;DHT22;3367;48.714;8.994;2023-02-28T06:23:42;-2.30;99.90
6662;DHT22;3367;48.714;8.994;2023-02-28T06:26:11;-2.30;99.90
6662;DHT22;3367;48.714;8.994;2023-02-28T06:28:38;-2.30;99.90
6662;DHT22;3367;48.714;8.994;2023-02-28T06:31:07;-2.30;1.00
6662;DHT22;3367;48.714;8.994;2023-02-28T06:33:34;-2.30;1.00
6662;DHT22;3367;48.714;8.994;2023-02-28T06:36:01;-2.30;1.00
6662;DHT22;3367;48.714;8.994;2023-02-28T06:38:28;-2.30;1.00
6662;DHT22;3367;48.714;8.994;2023-02-28T06:40:56;-2.30;1.00
6662;DHT22;3367;48.714;8.994;2023-02-28T06:43:27;-2.20;1.00
6662;DHT22;3367;48.714;8.994;2023-02-28T06:45:54;-2.30;1.00
6662;DHT22;3367;48.714;8.994;2023-02-28T06:48:21;-2.30;1.00
6662;DHT22;3367;48.714;8.994;2023-02-28T06:50:49;-2.20;1.00
6662;DHT22;3367;48.714;8.994;2023-02-28T06:53:16;-2.20;1.00
6662;DHT22;3367;48.714;8.994;2023-02-28T06:55:43;-2.20;1.00
6662;DHT22;3367;48.714;8.994;2023-02-28T06:58:10;-2.10;1.00
6662;DHT22;3367;48.714;8.994;2023-02-28T07:00:42;-2.10;1.00
6662;DHT22;3367;48.714;8.994;2023-02-28T07:03:10;-2.10;1.00
6662;DHT22;3367;48.714;8.994;2023-02-28T07:05:38;-2.10;1.00
6662;DHT22;3367;48.714;8.994;2023-02-28T07:08:05;-2.10;1.00
6662;DHT22;3367;48.714;8.994;2023-02-28T07:10:33;-2.00;1.00
6662;DHT22;3367;48.714;8.994;2023-02-28T07:13:00;-2.00;99.90
6662;DHT22;3367;48.714;8.994;2023-02-28T07:15:30;-2.00;99.90
6662;DHT22;3367;48.714;8.994;2023-02-28T07:17:59;-1.90;99.90
6662;DHT22;3367;48.714;8.994;2023-02-28T07:20:26;-1.90;99.90
6662;DHT22;3367;48.714;8.994;2023-02-28T07:22:53;-1.90;99.90
6662;DHT22;3367;48.714;8.994;2023-02-28T07:25:22;-1.90;99.90
6662;DHT22;3367;48.714;8.994;2023-02-28T07:27:49;-1.80;99.90
6662;DHT22;3367;48.714;8.994;2023-02-28T07:30:17;-1.70;99.90
6662;DHT22;3367;48.714;8.994;2023-02-28T07:32:44;-1.70;99.90
6662;DHT22;3367;48.714;8.994;2023-02-28T07:35:12;-1.60;99.90
6662;DHT22;3367;48.714;8.994;2023-02-28T07:37:40;-1.60;99.90
6662;DHT22;3367;48.714;8.994;2023-02-28T07:40:10;-1.60;99.90
6662;DHT22;3367;48.714;8.994;2023-02-28T07:42:38;-1.60;99.90
6662;DHT22;3367;48.714;8.994;2023-02-28T07:45:05;-1.60;99.90
6662;DHT22;3367;48.714;8.994;2023-02-28T07:47:32;-1.50;99.90
6662;DHT22;3367;48.714;8.994;2023-02-28T07:49:59;-1.50;99.90
6662;DHT22;3367;48.714;8.994;2023-02-28T07:52:27;-1.40;99.90
6662;DHT22;3367;48.714;8.994;2023-02-28T07:54:54;-1.40;99.90
6662;DHT22;3367;48.714;8.994;2023-02-28T07:57:22;-1.30;99.90
6662;DHT22;3367;48.714;8.994;2023-02-28T07:59:49;-1.30;99.90
6662;DHT22;3367;48.714;8.994;2023-02-28T08:02:18;-1.20;99.90
6662;DHT22;3367;48.714;8.994;2023-02-28T08:04:45;-1.20;99.90
6662;DHT22;3367;48.714;8.994;2023-02-28T08:07:13;-1.10;99.90
6662;DHT22;3367;48.714;8.994;2023-02-28T08:09:42;-1.10;99.90
6662;DHT22;3367;48.714;8.994;2023-02-28T08:12:09;-1.10;99.90
6662;DHT22;3367;48.714;8.994;2023-02-28T08:14:37;-1.20;63.10
6662;DHT22;3367;48.714;8.994;2023-02-28T08:17:04;-1.20;66.50
6662;DHT22;3367;48.714;8.994;2023-02-28T08:19:31;-1.10;61.20
6662;DHT22;3367;48.714;8.994;2023-02-28T08:21:58;-1.10;60.70
6662;DHT22;3367;48.714;8.994;2023-02-28T08:24:25;-1.10;55.00
6662;DHT22;3367;48.714;8.994;2023-02-28T08:26:53;-1.00;52.40
6662;DHT22;3367;48.714;8.994;2023-02-28T08:29:20;-0.90;43.30
6662;DHT22;3367;48.714;8.994;2023-02-28T08:31:47;-0.90;40.60
6662;DHT22;3367;48.714;8.994;2023-02-28T08:34:15;-0.80;32.50
6662;DHT22;3367;48.714;8.994;2023-02-28T08:36:43;-0.80;25.30
6662;DHT22;3367;48.714;8.994;2023-02-28T08:39:10;-0.90;20.20
6662;DHT22;3367;48.714;8.994;2023-02-28T08:41:37;-0.90;18.40
6662;DHT22;3367;48.714;8.994;2023-02-28T08:44:05;-0.90;18.30
6662;DHT22;3367;48.714;8.994;2023-02-28T08:46:32;-0.90;17.60
6662;DHT22;3367;48.714;8.994;2023-02-28T08:48:59;-0.80;16.90
6662;DHT22;3367;48.714;8.994;2023-02-28T08:51:27;-0.80;14.80
6662;DHT22;3367;48.714;8.994;2023-02-28T08:53:55;-0.70;13.30
6662;DHT22;3367;48.714;8.994;2023-02-28T08:56:24;-0.70;6.20
6662;DHT22;3367;48.714;8.994;2023-02-28T08:58:50;-0.70;4.60
6662;DHT22;3367;48.714;8.994;2023-02-28T09:01:23;-0.70;5.20
6662;DHT22;3367;48.714;8.994;2023-02-28T09:03:51;-0.70;1.00
6662;DHT22;3367;48.714;8.994;2023-02-28T09:06:19;-0.70;1.00
6662;DHT22;3367;48.714;8.994;2023-02-28T09:08:46;-0.80;1.00
6662;DHT22;3367;48.714;8.994;2023-02-28T09:11:13;-0.80;1.00
6662;DHT22;3367;48.714;8.994;2023-02-28T09:13:40;-0.70;1.00
6662;DHT22;3367;48.714;8.994;2023-02-28T09:16:09;-0.70;1.00
6662;DHT22;3367;48.714;8.994;2023-02-28T09:18:38;-0.60;1.00
6662;DHT22;3367;48.714;8.994;2023-02-28T09:21:06;-0.60;1.00
6662;DHT22;3367;48.714;8.994;2023-02-28T09:23:34;-0.50;1.00
6662;DHT22;3367;48.714;8.994;2023-02-28T09:26:04;-0.50;1.00
6662;DHT22;3367;48.714;8.994;2023-02-28T09:28:31;-0.40;1.00
6662;DHT22;3367;48.714;8.994;2023-02-28T09:30:57;-0.40;1.00
6662;DHT22;3367;48.714;8.994;2023-02-28T09:33:25;-0.40;1.00
6662;DHT22;3367;48.714;8.994;2023-02-28T09:36:00;-0.30;1.00
6662;DHT22;3367;48.714;8.994;2023-02-28T09:38:27;-0.30;1.00
6662;DHT22;3367;48.714;8.994;2023-02-28T09:40:56;-0.20;1.00
6662;DHT22;3367;48.714;8.994;2023-02-28T09:43:27;-0.40;1.00
6662;DHT22;3367;48.714;8.994;2023-02-28T09:45:58;-0.30;1.00
6662;DHT22;3367;48.714;8.994;2023-02-28T09:48:32;-0.10;1.00
6662;DHT22;3367;48.714;8.994;2023-02-28T09:51:04;0.00;1.00
6662;DHT22;3367;48.714;8.994;2023-02-28T09:53:34;0.10;1.00
6662;DHT22;3367;48.714;8.994;2023-02-28T09:56:04;0.00;1.00
6662;DHT22;3367;48.714;8.994;2023-02-28T09:58:39;0.10;1.00
6662;DHT22;3367;48.714;8.994;2023-02-28T10:01:12;0.20;1.00
6662;DHT22;3367;48.714;8.994;2023-02-28T10:03:47;0.10;1.00
6662;DHT22;3367;48.714;8.994;2023-02-28T10:06:23;0.20;1.00
6662;DHT22;3367;48.714;8.994;2023-02-28T10:08:57;0.10;1.00
6662;DHT22;3367;48.714;8.994;2023-02-28T10:11:25;0.10;1.00
6662;DHT22;3367;48.714;8.994;2023-02-28T10:13:59;0.20;1.00
6662;DHT22;3367;48.714;8.994;2023-02-28T10:16:34;0.20;1.00
6662;DHT22;3367;48.714;8.994;2023-02-28T10:19:04;0.20;1.00
6662;DHT22;3367;48.714;8.994;2023-02-28T10:21:38;0.30;1.00
6662;DHT22;3367;48.714;8.994;2023-02-28T10:24:26;0.20;1.00
6662;DHT22;3367;48.714;8.994;2023-02-28T10:27:00;0.10;1.00
6662;DHT22;3367;48.714;8.994;2023-02-28T10:29:28;0.20;1.00
6662;DHT22;3367;48.714;8.994;2023-02-28T10:32:01;0.40;1.00
6662;DHT22;3367;48.714;8.994;2023-02-28T10:34:29;0.50;1.00
6662;DHT22;3367;48.714;8.994;2023-02-28T10:36:58;0.40;1.00
6662;DHT22;3367;48.714;8.994;2023-02-28T10:39:40;0.60;1.00
6662;DHT22;3367;48.714;8.994;2023-02-28T10:42:20;0.80;1.00
6662;DHT22;3367;48.714;8.994;2023-02-28T10:44:47;1.00;1.00
6662;DHT22;3367;48.714;8.994;2023-02-28T10:47:15;1.20;1.00
6662;DHT22;3367;48.714;8.994;2023-02-28T10:49:47;1.20;1.00
6662;DHT22;3367;48.714;8.994;2023-02-28T10:52:33;1.20;1.00
6662;DHT22;3367;48.714;8.994;2023-02-28T10:55:15;1.20;1.00
6662;DHT22;3367;48.714;8.994;2023-02-28T10:57:42;1.30;1.00
6662;DHT22;3367;48.714;8.994;2023-02-28T11:00:14;1.50;1.00
6662;DHT22;3367;48.714;8.994;2023-02-28T11:02:42;1.70;1.00
6662;DHT22;3367;48.714;8.994;2023-02-28T11:05:25;1.60;1.00
6662;DHT22;3367;48.714;8.994;2023-02-28T11:07:54;1.80;1.00
6662;DHT22;3367;48.714;8.994;2023-02-28T11:10:25;1.60;1.00
6662;DHT22;3367;48.714;8.994;2023-02-28T11:12:55;1.50;1.00
6662;DHT22;3367;48.714;8.994;2023-02-28T11:15:24;1.60;1.00
6662;DHT22;3367;48.714;8.994;2023-02-28T11:17:56;1.70;1.00
6662;DHT22;3367;48.714;8.994;2023-02-28T11:20:26;1.60;1.00
6662;DHT22;3367;48.714;8.994;2023-02-28T11:22:56;1.70;1.00
6662;DHT22;3367;48.714;8.994;2023-02-28T11:25:26;1.90;1.00
6662;DHT22;3367;48.714;8.994;2023-02-28T11:27:54;1.60;1.00
6662;DHT22;3367;48.714;8.994;2023-02-28T11:30:31;1.70;1.00
6662;DHT22;3367;48.714;8.994;2023-02-28T11:32:58;1.70;1.00
6662;DHT22;3367;48.714;8.994;2023-02-28T11:35:30;1.80;1.00
6662;DHT22;3367;48.714;8.994;2023-02-28T11:38:01;1.70;1.00
6662;DHT22;3367;48.714;8.994;2023-02-28T11:40:35;1.70;1.00
6662;DHT22;3367;48.714;8.994;2023-02-28T11:43:11;1.80;1.00
6662;DHT22;3367;48.714;8.994;2023-02-28T11:46:01;1.70;1.00
6662;DHT22;3367;48.714;8.994;2023-02-28T11:48:37;1.80;1.00
6662;DHT22;3367;48.714;8.994;2023-02-28T11:51:15;1.70;1.00
6662;DHT22;3367;48.714;8.994;2023-02-28T11:54:17;1.70;1.00
6662;DHT22;3367;48.714;8.994;2023-02-28T11:56:51;1.80;1.00
6662;DHT22;3367;48.714;8.994;2023-02-28T11:59:32;1.70;1.00
6662;DHT22;3367;48.714;8.994;2023-02-28T12:02:16;1.70;1.00
6662;DHT22;3367;48.714;8.994;2023-02-28T12:04:52;1.70;1.00
6662;DHT22;3367;48.714;8.994;2023-02-28T12:07:28;1.80;1.00
6662;DHT22;3367;48.714;8.994;2023-02-28T12:10:05;1.70;1.00
6662;DHT22;3367;48.714;8.994;2023-02-28T12:12:49;1.60;1.00
6662;DHT22;3367;48.714;8.994;2023-02-28T12:15:26;1.50;1.00
6662;DHT22;3367;48.714;8.994;2023-02-28T12:18:09;1.70;1.00
6662;DHT22;3367;48.714;8.994;2023-02-28T12:20:44;1.90;1.00
6662;DHT22;3367;48.714;8.994;2023-02-28T12:23:40;2.10;1.00
6662;DHT22;3367;48.714;8.994;2023-02-28T12:26:17;2.20;1.00
6662;DHT22;3367;48.714;8.994;2023-02-28T12:28:49;2.20;1.00
6662;DHT22;3367;48.714;8.994;2023-02-28T12:31:20;2.40;1.00
6662;DHT22;3367;48.714;8.994;2023-02-28T12:33:52;2.70;1.00
6662;DHT22;3367;48.714;8.994;2023-02-28T12:36:20;2.90;1.00
6662;DHT22;3367;48.714;8.994;2023-02-28T12:38:52;3.20;1.00
6662;DHT22;3367;48.714;8.994;2023-02-28T12:41:29;3.40;1.00
6662;DHT22;3367;48.714;8.994;2023-02-28T12:44:03;3.40;1.00
6662;DHT22;3367;48.714;8.994;2023-02-28T12:46:33;3.30;1.00
6662;DHT22;3367;48.714;8.994;2023-02-28T12:49:05;3.20;1.00
6662;DHT22;3367;48.714;8.994;2023-02-28T12:51:32;2.90;1.00
6662;DHT22;3367;48.714;8.994;2023-02-28T12:54:07;2.80;1.00
6662;DHT22;3367;48.714;8.994;2023-02-28T12:56:44;2.70;1.00
6662;DHT22;3367;48.714;8.994;2023-02-28T12:59:19;2.70;1.00
6662;DHT22;3367;48.714;8.994;2023-02-28T13:02:13;2.70;1.00
6662;DHT22;3367;48.714;8.994;2023-02-28T13:05:07;2.80;1.00
6662;DHT22;3367;48.714;8.994;2023-02-28T13:08:15;2.90;1.00
6662;DHT22;3367;48.714;8.994;2023-02-28T13:10:48;3.10;1.00
6662;DHT22;3367;48.714;8.994;2023-02-28T13:13:23;3.10;1.00
6662;DHT22;3367;48.714;8.994;2023-02-28T13:16:00;3.10;1.00
6662;DHT22;3367;48.714;8.994;2023-02-28T13:18:31;3.30;1.00
6662;DHT22;3367;48.714;8.994;2023-02-28T13:20:58;3.40;1.00
6662;DHT22;3367;48.714;8.994;2023-02-28T13:23:57;3.40;1.00
6662;DHT22;3367;48.714;8.994;2023-02-28T13:27:20;3.40;1.00
6662;DHT22;3367;48.714;8.994;2023-02-28T13:29:52;3.30;1.00
6662;DHT22;3367;48.714;8.994;2023-02-28T13:32:42;3.40;1.00
6662;DHT22;3367;48.714;8.994;2023-02-28T13:35:14;3.30;1.00
6662;DHT22;3367;48.714;8.994;2023-02-28T13:37:45;3.30;1.00
6662;DHT22;3367;48.714;8.994;2023-02-28T13:40:32;3.40;1.00
6662;DHT22;3367;48.714;8.994;2023-02-28T13:43:02;3.60;1.00
6662;DHT22;3367;48.714;8.994;2023-02-28T13:45:31;3.70;1.00
6662;DHT22;3367;48.714;8.994;2023-02-28T13:48:04;3.70;1.00
6662;DHT22;3367;48.714;8.994;2023-02-28T13:50:42;3.80;1.00
6662;DHT22;3367;48.714;8.994;2023-02-28T13:53:37;3.80;1.00
6662;DHT22;3367;48.714;8.994;2023-02-28T13:56:18;3.80;1.00
6662;DHT22;3367;48.714;8.994;2023-02-28T13:58:53;4.00;1.00
6662;DHT22;3367;48.714;8.994;2023-02-28T14:01:35;4.10;1.00
6662;DHT22;3367;48.714;8.994;2023-02-28T14:04:44;4.30;1.00
6662;DHT22;3367;48.714;8.994;2023-02-28T14:07:18;4.20;1.00
6662;DHT22;3367;48.714;8.994;2023-02-28T14:09:51;4.10;1.00
6662;DHT22;3367;48.714;8.994;2023-02-28T14:12:56;4.10;1.00
6662;DHT22;3367;48.714;8.994;2023-02-28T14:15:45;4.00;1.00
6662;DHT22;3367;48.714;8.994;2023-02-28T14:18:19;3.90;1.00
6662;DHT22;3367;48.714;8.994;2023-02-28T14:20:47;3.80;1.00
6662;DHT22;3367;48.714;8.994;2023-02-28T14:23:22;3.90;1.00
6662;DHT22;3367;48.714;8.994;2023-02-28T14:26:01;4.10;1.00
6662;DHT22;3367;48.714;8.994;2023-02-28T14:28:47;4.10;1.00
6662;DHT22;3367;48.714;8.994;2023-02-28T14:31:18;4.10;1.00
6662;DHT22;3367;48.714;8.994;2023-02-28T14:34:05;4.20;1.00
6662;DHT22;3367;48.714;8.994;2023-02-28T14:36:41;4.10;1.00
6662;DHT22;3367;48.714;8.994;2023-02-28T14:39:12;4.10;1.00
6662;DHT22;3367;48.714;8.994;2023-02-28T14:41:41;4.00;1.00
6662;DHT22;3367;48.714;8.994;2023-02-28T14:44:16;3.90;1.00
6662;DHT22;3367;48.714;8.994;2023-02-28T14:46:45;4.00;1.00
6662;DHT22;3367;48.714;8.994;2023-02-28T14:49:19;4.00;1.00
6662;DHT22;3367;48.714;8.994;2023-02-28T14:51:48;4.20;1.00
6662;DHT22;3367;48.714;8.994;2023-02-28T14:54:17;4.20;1.00
6662;DHT22;3367;48.714;8.994;2023-02-28T14:56:50;4.30;1.00
6662;DHT22;3367;48.714;8.994;2023-02-28T14:59:26;4.30;1.00
6662;DHT22;3367;48.714;8.994;2023-02-28T15:02:16;4.30;1.00
6662;DHT22;3367;48.714;8.994;2023-02-28T15:04:52;4.20;1.00
6662;DHT22;3367;48.714;8.994;2023-02-28T15:07:20;4.10;1.00
6662;DHT22;3367;48.714;8.994;2023-02-28T15:10:13;4.10;1.00
6662;DHT22;3367;48.714;8.994;2023-02-28T15:12:40;4.20;1.00
6662;DHT22;3367;48.714;8.994;2023-02-28T15:15:15;4.20;1.00
6662;DHT22;3367;48.714;8.994;2023-02-28T15:17:45;4.30;1.00
6662;DHT22;3367;48.714;8.994;2023-02-28T15:20:15;4.30;1.00
6662;DHT22;3367;48.714;8.994;2023-02-28T15:22:45;4.20;1.00
6662;DHT22;3367;48.714;8.994;2023-02-28T15:25:14;4.20;1.00
6662;DHT22;3367;48.714;8.994;2023-02-28T15:27:46;4.30;1.00
6662;DHT22;3367;48.714;8.994;2023-02-28T15:30:17;4.20;1.00
6662;DHT22;3367;48.714;8.994;2023-02-28T15:32:45;4.20;1.00
6662;DHT22;3367;48.714;8.994;2023-02-28T15:35:31;4.20;1.00
6662;DHT22;3367;48.714;8.994;2023-02-28T15:38:01;4.10;1.00
6662;DHT22;3367;48.714;8.994;2023-02-28T15:40:31;4.10;1.00
6662;DHT22;3367;48.714;8.994;2023-02-28T15:43:07;4.10;1.00
6662;DHT22;3367;48.714;8.994;2023-02-28T15:45:44;4.10;1.00
6662;DHT22;3367;48.714;8.994;2023-02-28T15:48:16;4.10;1.00
6662;DHT22;3367;48.714;8.994;2023-02-28T15:50:48;4.10;1.00
6662;DHT22;3367;48.714;8.994;2023-02-28T15:53:18;4.10;1.00
6662;DHT22;3367;48.714;8.994;2023-02-28T15:55:54;4.00;1.00
6662;DHT22;3367;48.714;8.994;2023-02-28T15:58:22;4.00;1.00
6662;DHT22;3367;48.714;8.994;2023-02-28T16:01:04;4.00;1.00
6662;DHT22;3367;48.714;8.994;2023-02-28T16:03:39;3.90;1.00
6662;DHT22;3367;48.714;8.994;2023-02-28T16:06:30;3.90;1.00
6662;DHT22;3367;48.714;8.994;2023-02-28T16:08:58;3.90;1.00
6662;DHT22;3367;48.714;8.994;2023-02-28T16:11:25;3.80;1.00
6662;DHT22;3367;48.714;8.994;2023-02-28T16:13:52;3.80;1.00
6662;DHT22;3367;48.714;8.994;2023-02-28T16:16:20;3.80;1.00
6662;DHT22;3367;48.714;8.994;2023-02-28T16:18:50;3.80;1.00
6662;DHT22;3367;48.714;8.994;2023-02-28T16:21:17;3.80;1.00
6662;DHT22;3367;48.714;8.994;2023-02-28T16:23:45;3.70;1.00
6662;DHT22;3367;48.714;8.994;2023-02-28T16:26:18;3.60;1.00
6662;DHT22;3367;48.714;8.994;2023-02-28T16:28:46;3.60;1.00
6662;DHT22;3367;48.714;8.994;2023-02-28T16:31:13;3.50;1.00
6662;DHT22;3367;48.714;8.994;2023-02-28T16:33:42;3.50;1.00
6662;DHT22;3367;48.714;8.994;2023-02-28T16:36:12;3.40;1.00
6662;DHT22;3367;48.714;8.994;2023-02-28T16:38:39;3.40;1.00
6662;DHT22;3367;48.714;8.994;2023-02-28T16:41:12;3.30;1.00
6662;DHT22;3367;48.714;8.994;2023-02-28T16:43:43;3.30;1.00
6662;DHT22;3367;48.714;8.994;2023-02-28T16:46:11;3.20;1.00
6662;DHT22;3367;48.714;8.994;2023-02-28T16:48:38;3.10;1.00
6662;DHT22;3367;48.714;8.994;2023-02-28T16:51:06;3.10;1.00
6662;DHT22;3367;48.714;8.994;2023-02-28T16:53:32;3.00;1.00
6662;DHT22;3367;48.714;8.994;2023-02-28T16:56:00;2.90;1.00
6662;DHT22;3367;48.714;8.994;2023-02-28T16:58:29;2.80;1.00